Sidman, Pennsylvania
Current Conditions -  °F | °C
As of 12:01 PM on Thursday 30 Oct 2014 (Local Time) from KJST Reporting Station
Overcast Overcast  
Wind Chill: 38°   Ceiling: 1600
Heat Index: 43°   Visibility: 10mi
Dew Point: 35°   Wind: 8mph
Humidity: 74%   Direction: 350°N
Pressure: 30.06"   Gusts: NA
Location:  40.33°N, 78.74°W
Report Text: KJST 301601Z AUTO 35007KT 10SM BKN016 OVC024 06/02 A3006 RMK AO2 T00610017
Loading
Personal Weather Stations






























Interactive Weather Map
Tropical Storm Tracking
New forecast layout! Learn more

10-Day Weather Forecast

Advertisements
Track Severe Weather on mobile